sensor_id;sensor_type;location;lat;lon;timestamp;P1;durP1;ratioP1;P2;durP2;ratioP2
15458;SDS011;59054;48.692;9.136;2022-07-05T00:00:13;5.50;;;1.80;;
15458;SDS011;59054;48.692;9.136;2022-07-05T00:02:40;3.63;;;1.97;;
15458;SDS011;59054;48.692;9.136;2022-07-05T00:05:09;3.23;;;1.70;;
15458;SDS011;59054;48.692;9.136;2022-07-05T00:07:36;4.33;;;2.40;;
15458;SDS011;59054;48.692;9.136;2022-07-05T00:10:03;2.43;;;1.53;;
15458;SDS011;59054;48.692;9.136;2022-07-05T00:12:31;2.57;;;2.03;;
15458;SDS011;59054;48.692;9.136;2022-07-05T00:14:58;2.57;;;1.77;;
15458;SDS011;59054;48.692;9.136;2022-07-05T00:17:26;1.90;;;1.67;;
15458;SDS011;59054;48.692;9.136;2022-07-05T00:19:53;3.80;;;1.90;;
15458;SDS011;59054;48.692;9.136;2022-07-05T00:22:21;3.90;;;3.20;;
15458;SDS011;59054;48.692;9.136;2022-07-05T00:24:48;4.17;;;2.13;;
15458;SDS011;59054;48.692;9.136;2022-07-05T00:27:15;4.23;;;2.60;;
15458;SDS011;59054;48.692;9.136;2022-07-05T00:29:42;5.77;;;2.03;;
15458;SDS011;59054;48.692;9.136;2022-07-05T00:32:09;2.40;;;2.03;;
15458;SDS011;59054;48.692;9.136;2022-07-05T00:34:36;3.60;;;1.70;;
15458;SDS011;59054;48.692;9.136;2022-07-05T00:37:03;4.07;;;2.10;;
15458;SDS011;59054;48.692;9.136;2022-07-05T00:39:31;3.13;;;1.93;;
15458;SDS011;59054;48.692;9.136;2022-07-05T00:41:58;4.27;;;2.40;;
15458;SDS011;59054;48.692;9.136;2022-07-05T00:44:30;3.40;;;2.00;;
15458;SDS011;59054;48.692;9.136;2022-07-05T00:46:57;4.63;;;2.10;;
15458;SDS011;59054;48.692;9.136;2022-07-05T00:49:24;2.73;;;1.90;;
15458;SDS011;59054;48.692;9.136;2022-07-05T00:51:51;3.57;;;2.03;;
15458;SDS011;59054;48.692;9.136;2022-07-05T00:54:18;4.53;;;1.70;;
15458;SDS011;59054;48.692;9.136;2022-07-05T00:56:47;3.30;;;1.90;;
15458;SDS011;59054;48.692;9.136;2022-07-05T00:59:14;4.03;;;1.97;;
15458;SDS011;59054;48.692;9.136;2022-07-05T01:01:41;5.13;;;2.23;;
15458;SDS011;59054;48.692;9.136;2022-07-05T01:04:07;3.13;;;2.47;;
15458;SDS011;59054;48.692;9.136;2022-07-05T01:06:36;2.60;;;2.20;;
15458;SDS011;59054;48.692;9.136;2022-07-05T01:09:03;2.70;;;2.17;;
15458;SDS011;59054;48.692;9.136;2022-07-05T01:11:31;3.40;;;2.00;;
15458;SDS011;59054;48.692;9.136;2022-07-05T01:13:59;3.83;;;2.00;;
15458;SDS011;59054;48.692;9.136;2022-07-05T01:16:27;4.87;;;2.20;;
15458;SDS011;59054;48.692;9.136;2022-07-05T01:18:54;4.70;;;2.27;;
15458;SDS011;59054;48.692;9.136;2022-07-05T01:21:22;3.73;;;2.30;;
15458;SDS011;59054;48.692;9.136;2022-07-05T01:23:52;3.60;;;1.90;;
15458;SDS011;59054;48.692;9.136;2022-07-05T01:26:19;4.50;;;2.00;;
15458;SDS011;59054;48.692;9.136;2022-07-05T01:28:46;2.53;;;2.20;;
15458;SDS011;59054;48.692;9.136;2022-07-05T01:31:13;3.43;;;1.80;;
15458;SDS011;59054;48.692;9.136;2022-07-05T01:33:40;3.70;;;1.73;;
15458;SDS011;59054;48.692;9.136;2022-07-05T01:36:08;4.93;;;2.40;;
15458;SDS011;59054;48.692;9.136;2022-07-05T01:38:37;3.27;;;2.17;;
15458;SDS011;59054;48.692;9.136;2022-07-05T01:41:06;3.33;;;1.90;;
15458;SDS011;59054;48.692;9.136;2022-07-05T01:43:35;5.53;;;2.30;;
15458;SDS011;59054;48.692;9.136;2022-07-05T01:46:02;2.90;;;2.20;;
15458;SDS011;59054;48.692;9.136;2022-07-05T01:48:32;5.30;;;2.27;;
15458;SDS011;59054;48.692;9.136;2022-07-05T01:51:00;3.23;;;2.30;;
15458;SDS011;59054;48.692;9.136;2022-07-05T01:53:31;12.27;;;2.43;;
15458;SDS011;59054;48.692;9.136;2022-07-05T01:55:59;4.50;;;2.40;;
15458;SDS011;59054;48.692;9.136;2022-07-05T01:58:28;4.27;;;2.37;;
15458;SDS011;59054;48.692;9.136;2022-07-05T02:00:56;3.50;;;2.47;;
15458;SDS011;59054;48.692;9.136;2022-07-05T02:03:24;3.47;;;2.40;;
15458;SDS011;59054;48.692;9.136;2022-07-05T02:05:53;4.77;;;2.33;;
15458;SDS011;59054;48.692;9.136;2022-07-05T02:08:20;3.70;;;2.37;;
15458;SDS011;59054;48.692;9.136;2022-07-05T02:10:54;2.97;;;2.13;;
15458;SDS011;59054;48.692;9.136;2022-07-05T02:13:22;2.97;;;2.20;;
15458;SDS011;59054;48.692;9.136;2022-07-05T02:15:50;2.97;;;2.23;;
15458;SDS011;59054;48.692;9.136;2022-07-05T02:18:17;3.53;;;2.30;;
15458;SDS011;59054;48.692;9.136;2022-07-05T02:20:44;5.77;;;1.87;;
15458;SDS011;59054;48.692;9.136;2022-07-05T02:23:11;3.53;;;2.00;;
15458;SDS011;59054;48.692;9.136;2022-07-05T02:25:38;2.83;;;2.10;;
15458;SDS011;59054;48.692;9.136;2022-07-05T02:28:05;3.33;;;2.30;;
15458;SDS011;59054;48.692;9.136;2022-07-05T02:30:32;3.33;;;1.93;;
15458;SDS011;59054;48.692;9.136;2022-07-05T02:33:00;4.07;;;2.30;;
15458;SDS011;59054;48.692;9.136;2022-07-05T02:35:27;2.90;;;2.00;;
15458;SDS011;59054;48.692;9.136;2022-07-05T02:37:54;3.90;;;2.60;;
15458;SDS011;59054;48.692;9.136;2022-07-05T02:40:21;4.67;;;2.90;;
15458;SDS011;59054;48.692;9.136;2022-07-05T02:42:48;3.67;;;2.47;;
15458;SDS011;59054;48.692;9.136;2022-07-05T02:45:15;3.87;;;2.33;;
15458;SDS011;59054;48.692;9.136;2022-07-05T02:47:42;2.83;;;2.53;;
15458;SDS011;59054;48.692;9.136;2022-07-05T02:50:10;8.73;;;2.13;;
15458;SDS011;59054;48.692;9.136;2022-07-05T02:52:37;3.23;;;2.20;;
15458;SDS011;59054;48.692;9.136;2022-07-05T02:55:04;4.80;;;2.30;;
15458;SDS011;59054;48.692;9.136;2022-07-05T02:57:32;4.67;;;2.10;;
15458;SDS011;59054;48.692;9.136;2022-07-05T02:59:59;2.87;;;2.33;;
15458;SDS011;59054;48.692;9.136;2022-07-05T03:02:26;6.50;;;2.83;;
15458;SDS011;59054;48.692;9.136;2022-07-05T03:04:52;3.30;;;2.17;;
15458;SDS011;59054;48.692;9.136;2022-07-05T03:07:20;3.97;;;2.63;;
15458;SDS011;59054;48.692;9.136;2022-07-05T03:09:47;2.27;;;1.80;;
15458;SDS011;59054;48.692;9.136;2022-07-05T03:12:14;3.70;;;2.10;;
15458;SDS011;59054;48.692;9.136;2022-07-05T03:14:41;4.63;;;2.20;;
15458;SDS011;59054;48.692;9.136;2022-07-05T03:17:08;3.03;;;2.57;;
15458;SDS011;59054;48.692;9.136;2022-07-05T03:19:35;3.37;;;2.60;;
15458;SDS011;59054;48.692;9.136;2022-07-05T03:22:02;4.00;;;2.50;;
15458;SDS011;59054;48.692;9.136;2022-07-05T03:24:31;4.57;;;2.40;;
15458;SDS011;59054;48.692;9.136;2022-07-05T03:26:57;2.53;;;2.23;;
15458;SDS011;59054;48.692;9.136;2022-07-05T03:29:24;3.90;;;2.53;;
15458;SDS011;59054;48.692;9.136;2022-07-05T03:31:51;5.13;;;2.57;;
15458;SDS011;59054;48.692;9.136;2022-07-05T03:34:18;3.43;;;2.57;;
15458;SDS011;59054;48.692;9.136;2022-07-05T03:36:45;4.90;;;2.50;;
15458;SDS011;59054;48.692;9.136;2022-07-05T03:39:11;3.33;;;2.33;;
15458;SDS011;59054;48.692;9.136;2022-07-05T03:41:40;3.07;;;2.50;;
15458;SDS011;59054;48.692;9.136;2022-07-05T03:44:07;3.77;;;2.57;;
15458;SDS011;59054;48.692;9.136;2022-07-05T03:46:34;4.27;;;2.20;;
15458;SDS011;59054;48.692;9.136;2022-07-05T03:49:01;2.77;;;2.53;;
15458;SDS011;59054;48.692;9.136;2022-07-05T03:51:28;2.80;;;2.13;;
15458;SDS011;59054;48.692;9.136;2022-07-05T03:53:55;3.20;;;2.37;;
15458;SDS011;59054;48.692;9.136;2022-07-05T03:56:22;7.77;;;4.20;;
15458;SDS011;59054;48.692;9.136;2022-07-05T03:58:51;7.07;;;2.90;;
15458;SDS011;59054;48.692;9.136;2022-07-05T04:01:18;3.40;;;2.33;;
15458;SDS011;59054;48.692;9.136;2022-07-05T04:03:45;2.97;;;2.37;;
15458;SDS011;59054;48.692;9.136;2022-07-05T04:06:12;3.27;;;2.87;;
15458;SDS011;59054;48.692;9.136;2022-07-05T04:08:39;2.90;;;2.37;;
15458;SDS011;59054;48.692;9.136;2022-07-05T04:11:06;2.93;;;2.20;;
15458;SDS011;59054;48.692;9.136;2022-07-05T04:13:34;3.03;;;2.10;;
15458;SDS011;59054;48.692;9.136;2022-07-05T04:16:02;4.07;;;2.50;;
15458;SDS011;59054;48.692;9.136;2022-07-05T04:18:29;3.30;;;2.43;;
15458;SDS011;59054;48.692;9.136;2022-07-05T04:20:56;4.00;;;2.47;;
15458;SDS011;59054;48.692;9.136;2022-07-05T04:23:23;3.07;;;2.50;;
15458;SDS011;59054;48.692;9.136;2022-07-05T04:25:50;3.80;;;2.10;;
15458;SDS011;59054;48.692;9.136;2022-07-05T04:28:17;5.30;;;2.50;;
15458;SDS011;59054;48.692;9.136;2022-07-05T04:30:44;4.37;;;2.63;;
15458;SDS011;59054;48.692;9.136;2022-07-05T04:33:13;3.37;;;2.90;;
15458;SDS011;59054;48.692;9.136;2022-07-05T04:35:40;4.03;;;2.80;;
15458;SDS011;59054;48.692;9.136;2022-07-05T04:38:07;3.70;;;2.40;;
15458;SDS011;59054;48.692;9.136;2022-07-05T04:40:34;3.77;;;2.60;;
15458;SDS011;59054;48.692;9.136;2022-07-05T04:43:01;5.23;;;2.70;;
15458;SDS011;59054;48.692;9.136;2022-07-05T04:45:28;4.03;;;2.50;;
15458;SDS011;59054;48.692;9.136;2022-07-05T04:47:55;4.13;;;2.40;;
15458;SDS011;59054;48.692;9.136;2022-07-05T04:50:23;6.57;;;2.10;;
15458;SDS011;59054;48.692;9.136;2022-07-05T04:52:50;3.07;;;2.40;;
15458;SDS011;59054;48.692;9.136;2022-07-05T04:55:17;4.00;;;2.50;;
15458;SDS011;59054;48.692;9.136;2022-07-05T04:57:44;4.40;;;2.20;;
15458;SDS011;59054;48.692;9.136;2022-07-05T05:00:12;3.30;;;1.97;;
15458;SDS011;59054;48.692;9.136;2022-07-05T05:02:40;4.23;;;1.97;;
15458;SDS011;59054;48.692;9.136;2022-07-05T05:05:07;4.30;;;2.17;;
15458;SDS011;59054;48.692;9.136;2022-07-05T05:07:35;3.57;;;2.00;;
15458;SDS011;59054;48.692;9.136;2022-07-05T05:10:05;3.93;;;2.23;;
15458;SDS011;59054;48.692;9.136;2022-07-05T05:12:33;3.47;;;2.30;;
15458;SDS011;59054;48.692;9.136;2022-07-05T05:15:00;3.97;;;2.20;;
15458;SDS011;59054;48.692;9.136;2022-07-05T05:17:33;2.90;;;2.00;;
15458;SDS011;59054;48.692;9.136;2022-07-05T05:20:01;2.97;;;2.03;;
15458;SDS011;59054;48.692;9.136;2022-07-05T05:22:29;4.40;;;2.00;;
15458;SDS011;59054;48.692;9.136;2022-07-05T05:24:57;2.67;;;1.73;;
15458;SDS011;59054;48.692;9.136;2022-07-05T05:27:24;2.77;;;2.37;;
15458;SDS011;59054;48.692;9.136;2022-07-05T05:29:50;3.63;;;2.13;;
15458;SDS011;59054;48.692;9.136;2022-07-05T05:32:17;3.67;;;1.97;;
15458;SDS011;59054;48.692;9.136;2022-07-05T05:34:44;3.40;;;2.37;;
15458;SDS011;59054;48.692;9.136;2022-07-05T05:37:11;3.50;;;2.33;;
15458;SDS011;59054;48.692;9.136;2022-07-05T05:39:38;2.70;;;1.70;;
15458;SDS011;59054;48.692;9.136;2022-07-05T05:42:07;2.10;;;1.73;;
15458;SDS011;59054;48.692;9.136;2022-07-05T05:44:34;3.00;;;1.63;;
15458;SDS011;59054;48.692;9.136;2022-07-05T05:47:01;4.33;;;1.63;;
15458;SDS011;59054;48.692;9.136;2022-07-05T05:49:28;4.70;;;1.60;;
15458;SDS011;59054;48.692;9.136;2022-07-05T05:51:54;3.03;;;1.93;;
15458;SDS011;59054;48.692;9.136;2022-07-05T05:54:21;3.47;;;1.60;;
15458;SDS011;59054;48.692;9.136;2022-07-05T05:56:48;3.50;;;1.50;;
15458;SDS011;59054;48.692;9.136;2022-07-05T05:59:16;2.77;;;1.30;;
15458;SDS011;59054;48.692;9.136;2022-07-05T06:01:43;2.43;;;1.17;;
15458;SDS011;59054;48.692;9.136;2022-07-05T06:04:10;2.93;;;1.57;;
15458;SDS011;59054;48.692;9.136;2022-07-05T06:06:37;2.47;;;1.23;;
15458;SDS011;59054;48.692;9.136;2022-07-05T06:09:04;2.07;;;1.23;;
15458;SDS011;59054;48.692;9.136;2022-07-05T06:11:31;2.97;;;1.40;;
15458;SDS011;59054;48.692;9.136;2022-07-05T06:13:58;3.30;;;1.33;;
15458;SDS011;59054;48.692;9.136;2022-07-05T06:16:26;1.90;;;1.27;;
15458;SDS011;59054;48.692;9.136;2022-07-05T06:18:53;2.93;;;0.97;;
15458;SDS011;59054;48.692;9.136;2022-07-05T06:21:20;1.50;;;1.20;;
15458;SDS011;59054;48.692;9.136;2022-07-05T06:23:46;1.70;;;1.20;;
15458;SDS011;59054;48.692;9.136;2022-07-05T06:26:13;2.53;;;1.10;;
15458;SDS011;59054;48.692;9.136;2022-07-05T06:28:40;2.33;;;1.10;;
15458;SDS011;59054;48.692;9.136;2022-07-05T06:31:07;2.10;;;1.00;;
15458;SDS011;59054;48.692;9.136;2022-07-05T06:33:35;5.20;;;1.47;;
15458;SDS011;59054;48.692;9.136;2022-07-05T06:36:02;1.87;;;1.13;;
15458;SDS011;59054;48.692;9.136;2022-07-05T06:38:29;2.53;;;1.37;;
15458;SDS011;59054;48.692;9.136;2022-07-05T06:40:56;3.50;;;1.20;;
15458;SDS011;59054;48.692;9.136;2022-07-05T06:43:25;3.63;;;1.07;;
15458;SDS011;59054;48.692;9.136;2022-07-05T06:45:51;3.17;;;1.10;;
15458;SDS011;59054;48.692;9.136;2022-07-05T06:48:19;2.43;;;1.10;;
15458;SDS011;59054;48.692;9.136;2022-07-05T06:50:47;2.07;;;0.90;;
15458;SDS011;59054;48.692;9.136;2022-07-05T06:53:14;2.30;;;1.33;;
15458;SDS011;59054;48.692;9.136;2022-07-05T06:55:41;2.60;;;1.07;;
15458;SDS011;59054;48.692;9.136;2022-07-05T06:58:09;1.87;;;1.20;;
15458;SDS011;59054;48.692;9.136;2022-07-05T07:00:37;3.57;;;1.10;;
15458;SDS011;59054;48.692;9.136;2022-07-05T07:03:05;2.67;;;1.00;;
15458;SDS011;59054;48.692;9.136;2022-07-05T07:05:31;3.27;;;1.30;;
15458;SDS011;59054;48.692;9.136;2022-07-05T07:08:00;2.90;;;1.10;;
15458;SDS011;59054;48.692;9.136;2022-07-05T07:10:44;2.33;;;1.20;;
15458;SDS011;59054;48.692;9.136;2022-07-05T07:13:11;2.10;;;1.30;;
15458;SDS011;59054;48.692;9.136;2022-07-05T07:15:38;3.97;;;1.00;;
15458;SDS011;59054;48.692;9.136;2022-07-05T07:18:05;3.77;;;1.17;;
15458;SDS011;59054;48.692;9.136;2022-07-05T07:20:32;3.30;;;1.07;;
15458;SDS011;59054;48.692;9.136;2022-07-05T07:23:01;2.00;;;1.00;;
15458;SDS011;59054;48.692;9.136;2022-07-05T07:25:28;1.50;;;1.10;;
15458;SDS011;59054;48.692;9.136;2022-07-05T07:27:55;2.30;;;1.23;;
15458;SDS011;59054;48.692;9.136;2022-07-05T07:30:22;5.77;;;1.20;;
15458;SDS011;59054;48.692;9.136;2022-07-05T07:32:51;2.40;;;1.03;;
15458;SDS011;59054;48.692;9.136;2022-07-05T07:35:18;2.30;;;1.10;;
15458;SDS011;59054;48.692;9.136;2022-07-05T07:37:45;3.67;;;1.30;;
15458;SDS011;59054;48.692;9.136;2022-07-05T07:40:13;5.43;;;1.10;;
15458;SDS011;59054;48.692;9.136;2022-07-05T07:42:40;3.37;;;1.20;;
15458;SDS011;59054;48.692;9.136;2022-07-05T07:45:08;2.63;;;1.07;;
15458;SDS011;59054;48.692;9.136;2022-07-05T07:47:35;2.53;;;1.27;;
15458;SDS011;59054;48.692;9.136;2022-07-05T07:50:03;2.73;;;1.20;;
15458;SDS011;59054;48.692;9.136;2022-07-05T07:52:31;2.83;;;1.20;;
15458;SDS011;59054;48.692;9.136;2022-07-05T07:54:59;7.63;;;1.47;;
15458;SDS011;59054;48.692;9.136;2022-07-05T07:57:28;3.47;;;1.50;;
15458;SDS011;59054;48.692;9.136;2022-07-05T07:59:55;2.33;;;1.20;;
15458;SDS011;59054;48.692;9.136;2022-07-05T08:02:22;2.30;;;1.00;;
15458;SDS011;59054;48.692;9.136;2022-07-05T08:04:49;5.13;;;1.20;;
15458;SDS011;59054;48.692;9.136;2022-07-05T08:07:16;3.00;;;1.70;;
15458;SDS011;59054;48.692;9.136;2022-07-05T08:09:44;2.70;;;1.20;;
15458;SDS011;59054;48.692;9.136;2022-07-05T08:12:11;1.63;;;1.20;;
15458;SDS011;59054;48.692;9.136;2022-07-05T08:14:40;1.40;;;1.00;;
15458;SDS011;59054;48.692;9.136;2022-07-05T08:17:06;1.63;;;1.10;;
15458;SDS011;59054;48.692;9.136;2022-07-05T08:19:34;1.80;;;0.97;;
15458;SDS011;59054;48.692;9.136;2022-07-05T08:22:19;2.37;;;1.20;;
15458;SDS011;59054;48.692;9.136;2022-07-05T08:24:45;1.93;;;1.30;;
15458;SDS011;59054;48.692;9.136;2022-07-05T08:27:12;1.88;;;1.17;;
15458;SDS011;59054;48.692;9.136;2022-07-05T08:29:41;1.50;;;0.98;;
15458;SDS011;59054;48.692;9.136;2022-07-05T08:32:09;3.38;;;0.98;;
15458;SDS011;59054;48.692;9.136;2022-07-05T08:34:36;4.03;;;1.20;;
15458;SDS011;59054;48.692;9.136;2022-07-05T08:37:04;3.50;;;0.95;;
15458;SDS011;59054;48.692;9.136;2022-07-05T08:39:31;2.75;;;0.90;;
15458;SDS011;59054;48.692;9.136;2022-07-05T08:41:59;5.18;;;1.10;;
15458;SDS011;59054;48.692;9.136;2022-07-05T08:44:27;4.40;;;1.33;;
15458;SDS011;59054;48.692;9.136;2022-07-05T08:46:56;1.48;;;0.85;;
15458;SDS011;59054;48.692;9.136;2022-07-05T08:49:24;2.17;;;0.90;;
15458;SDS011;59054;48.692;9.136;2022-07-05T08:51:53;1.45;;;0.90;;
15458;SDS011;59054;48.692;9.136;2022-07-05T08:54:21;2.25;;;1.00;;
15458;SDS011;59054;48.692;9.136;2022-07-05T08:56:50;3.00;;;1.13;;
15458;SDS011;59054;48.692;9.136;2022-07-05T08:59:17;4.57;;;1.10;;
15458;SDS011;59054;48.692;9.136;2022-07-05T09:01:45;1.80;;;1.10;;
15458;SDS011;59054;48.692;9.136;2022-07-05T09:04:14;1.85;;;1.13;;
15458;SDS011;59054;48.692;9.136;2022-07-05T09:06:45;2.13;;;1.20;;
15458;SDS011;59054;48.692;9.136;2022-07-05T09:09:15;2.25;;;1.27;;
15458;SDS011;59054;48.692;9.136;2022-07-05T09:11:43;2.55;;;1.00;;
15458;SDS011;59054;48.692;9.136;2022-07-05T09:14:18;3.72;;;1.10;;
15458;SDS011;59054;48.692;9.136;2022-07-05T09:16:46;4.88;;;1.40;;
15458;SDS011;59054;48.692;9.136;2022-07-05T09:19:15;2.13;;;1.15;;
15458;SDS011;59054;48.692;9.136;2022-07-05T09:21:42;4.88;;;1.38;;
15458;SDS011;59054;48.692;9.136;2022-07-05T09:24:09;3.80;;;0.90;;
15458;SDS011;59054;48.692;9.136;2022-07-05T09:26:39;1.98;;;1.02;;
15458;SDS011;59054;48.692;9.136;2022-07-05T09:29:07;2.72;;;0.90;;
15458;SDS011;59054;48.692;9.136;2022-07-05T09:31:35;3.05;;;1.08;;
15458;SDS011;59054;48.692;9.136;2022-07-05T09:34:03;1.63;;;0.98;;
15458;SDS011;59054;48.692;9.136;2022-07-05T09:36:49;3.17;;;0.98;;
15458;SDS011;59054;48.692;9.136;2022-07-05T09:39:36;3.63;;;1.10;;
15458;SDS011;59054;48.692;9.136;2022-07-05T09:42:14;3.38;;;1.05;;
15458;SDS011;59054;48.692;9.136;2022-07-05T09:44:44;5.75;;;1.05;;
15458;SDS011;59054;48.692;9.136;2022-07-05T09:47:12;3.85;;;1.20;;
15458;SDS011;59054;48.692;9.136;2022-07-05T09:49:41;3.20;;;1.02;;
15458;SDS011;59054;48.692;9.136;2022-07-05T09:52:10;2.35;;;1.10;;
15458;SDS011;59054;48.692;9.136;2022-07-05T09:54:37;2.95;;;0.82;;
15458;SDS011;59054;48.692;9.136;2022-07-05T09:57:05;4.43;;;1.60;;
15458;SDS011;59054;48.692;9.136;2022-07-05T09:59:32;4.55;;;1.30;;
15458;SDS011;59054;48.692;9.136;2022-07-05T10:01:59;4.57;;;1.00;;
15458;SDS011;59054;48.692;9.136;2022-07-05T10:04:26;3.20;;;1.27;;
15458;SDS011;59054;48.692;9.136;2022-07-05T10:06:53;3.97;;;1.10;;
15458;SDS011;59054;48.692;9.136;2022-07-05T10:09:21;2.78;;;1.00;;
15458;SDS011;59054;48.692;9.136;2022-07-05T10:11:48;2.67;;;1.20;;
15458;SDS011;59054;48.692;9.136;2022-07-05T10:14:18;1.70;;;0.98;;
15458;SDS011;59054;48.692;9.136;2022-07-05T10:16:52;3.72;;;1.00;;
15458;SDS011;59054;48.692;9.136;2022-07-05T10:19:23;2.13;;;1.45;;
15458;SDS011;59054;48.692;9.136;2022-07-05T10:21:54;4.22;;;1.27;;
15458;SDS011;59054;48.692;9.136;2022-07-05T10:24:23;2.08;;;0.77;;
15458;SDS011;59054;48.692;9.136;2022-07-05T10:26:51;3.10;;;1.08;;
15458;SDS011;59054;48.692;9.136;2022-07-05T10:29:19;2.72;;;1.40;;
15458;SDS011;59054;48.692;9.136;2022-07-05T10:31:49;4.35;;;1.30;;
15458;SDS011;59054;48.692;9.136;2022-07-05T10:34:16;2.88;;;1.20;;
15458;SDS011;59054;48.692;9.136;2022-07-05T10:36:44;2.95;;;1.10;;
15458;SDS011;59054;48.692;9.136;2022-07-05T10:39:11;2.75;;;0.98;;
15458;SDS011;59054;48.692;9.136;2022-07-05T10:41:42;3.17;;;1.10;;
15458;SDS011;59054;48.692;9.136;2022-07-05T10:44:09;4.07;;;1.10;;
15458;SDS011;59054;48.692;9.136;2022-07-05T10:46:36;3.97;;;1.13;;
15458;SDS011;59054;48.692;9.136;2022-07-05T10:49:14;3.60;;;1.00;;
15458;SDS011;59054;48.692;9.136;2022-07-05T10:51:43;3.42;;;1.20;;
15458;SDS011;59054;48.692;9.136;2022-07-05T10:54:10;2.65;;;1.20;;
15458;SDS011;59054;48.692;9.136;2022-07-05T10:56:37;2.65;;;0.90;;
15458;SDS011;59054;48.692;9.136;2022-07-05T10:59:07;3.67;;;1.30;;
15458;SDS011;59054;48.692;9.136;2022-07-05T11:01:37;1.42;;;0.93;;
15458;SDS011;59054;48.692;9.136;2022-07-05T11:06:55;1.30;;;0.88;;
15458;SDS011;59054;48.692;9.136;2022-07-05T11:09:23;1.30;;;0.98;;
15458;SDS011;59054;48.692;9.136;2022-07-05T11:12:06;1.42;;;0.85;;
15458;SDS011;59054;48.692;9.136;2022-07-05T11:14:39;1.65;;;1.10;;
15458;SDS011;59054;48.692;9.136;2022-07-05T11:17:21;2.30;;;1.63;;
15458;SDS011;59054;48.692;9.136;2022-07-05T11:20:03;2.75;;;1.10;;
15458;SDS011;59054;48.692;9.136;2022-07-05T11:22:34;2.80;;;1.25;;
15458;SDS011;59054;48.692;9.136;2022-07-05T11:25:02;4.68;;;1.23;;
15458;SDS011;59054;48.692;9.136;2022-07-05T11:27:31;3.05;;;1.30;;
15458;SDS011;59054;48.692;9.136;2022-07-05T11:30:00;2.05;;;1.48;;
15458;SDS011;59054;48.692;9.136;2022-07-05T11:32:35;1.92;;;1.10;;
15458;SDS011;59054;48.692;9.136;2022-07-05T11:37:58;2.45;;;1.42;;
15458;SDS011;59054;48.692;9.136;2022-07-05T11:40:29;5.78;;;2.67;;
15458;SDS011;59054;48.692;9.136;2022-07-05T11:42:57;2.55;;;1.20;;
15458;SDS011;59054;48.692;9.136;2022-07-05T11:45:27;3.80;;;1.20;;
15458;SDS011;59054;48.692;9.136;2022-07-05T11:47:54;3.50;;;1.00;;
15458;SDS011;59054;48.692;9.136;2022-07-05T11:50:26;2.55;;;0.93;;
15458;SDS011;59054;48.692;9.136;2022-07-05T11:52:54;2.28;;;1.02;;
15458;SDS011;59054;48.692;9.136;2022-07-05T11:55:23;1.92;;;1.25;;
15458;SDS011;59054;48.692;9.136;2022-07-05T11:57:52;2.65;;;1.13;;
15458;SDS011;59054;48.692;9.136;2022-07-05T12:00:29;3.08;;;1.00;;
15458;SDS011;59054;48.692;9.136;2022-07-05T12:02:57;1.85;;;1.00;;
15458;SDS011;59054;48.692;9.136;2022-07-05T12:05:29;4.10;;;1.00;;
15458;SDS011;59054;48.692;9.136;2022-07-05T12:07:57;2.78;;;1.00;;
15458;SDS011;59054;48.692;9.136;2022-07-05T12:10:24;3.80;;;1.20;;
15458;SDS011;59054;48.692;9.136;2022-07-05T12:13:09;2.60;;;0.98;;
15458;SDS011;59054;48.692;9.136;2022-07-05T12:15:37;5.03;;;1.25;;
15458;SDS011;59054;48.692;9.136;2022-07-05T12:18:06;3.25;;;1.48;;
15458;SDS011;59054;48.692;9.136;2022-07-05T12:20:34;2.75;;;1.10;;
15458;SDS011;59054;48.692;9.136;2022-07-05T12:23:03;1.98;;;1.20;;
15458;SDS011;59054;48.692;9.136;2022-07-05T12:25:30;4.18;;;1.30;;
15458;SDS011;59054;48.692;9.136;2022-07-05T12:27:58;1.73;;;1.17;;
15458;SDS011;59054;48.692;9.136;2022-07-05T12:30:28;2.38;;;0.95;;
15458;SDS011;59054;48.692;9.136;2022-07-05T12:32:58;4.38;;;1.10;;
15458;SDS011;59054;48.692;9.136;2022-07-05T12:35:27;2.67;;;1.02;;
15458;SDS011;59054;48.692;9.136;2022-07-05T12:37:55;4.13;;;1.20;;
15458;SDS011;59054;48.692;9.136;2022-07-05T12:40:22;3.47;;;1.33;;
15458;SDS011;59054;48.692;9.136;2022-07-05T12:42:59;3.50;;;1.33;;
15458;SDS011;59054;48.692;9.136;2022-07-05T12:45:27;2.78;;;1.35;;
15458;SDS011;59054;48.692;9.136;2022-07-05T12:47:55;1.70;;;1.08;;
15458;SDS011;59054;48.692;9.136;2022-07-05T12:50:24;2.90;;;1.10;;
15458;SDS011;59054;48.692;9.136;2022-07-05T12:53:03;4.97;;;1.20;;
15458;SDS011;59054;48.692;9.136;2022-07-05T12:55:44;2.03;;;1.20;;
15458;SDS011;59054;48.692;9.136;2022-07-05T12:58:29;1.95;;;1.00;;
15458;SDS011;59054;48.692;9.136;2022-07-05T13:00:55;1.40;;;1.08;;
15458;SDS011;59054;48.692;9.136;2022-07-05T13:03:23;3.20;;;1.15;;
15458;SDS011;59054;48.692;9.136;2022-07-05T13:06:00;2.85;;;1.10;;
15458;SDS011;59054;48.692;9.136;2022-07-05T13:08:28;5.55;;;1.23;;
15458;SDS011;59054;48.692;9.136;2022-07-05T13:10:56;14.52;;;1.48;;
15458;SDS011;59054;48.692;9.136;2022-07-05T13:13:23;3.08;;;1.25;;
15458;SDS011;59054;48.692;9.136;2022-07-05T13:15:50;1.77;;;1.23;;
15458;SDS011;59054;48.692;9.136;2022-07-05T13:18:23;3.90;;;1.23;;
15458;SDS011;59054;48.692;9.136;2022-07-05T13:20:51;5.03;;;1.20;;
15458;SDS011;59054;48.692;9.136;2022-07-05T13:23:20;1.55;;;1.15;;
15458;SDS011;59054;48.692;9.136;2022-07-05T13:25:47;4.32;;;1.10;;
15458;SDS011;59054;48.692;9.136;2022-07-05T13:28:13;3.47;;;1.20;;
15458;SDS011;59054;48.692;9.136;2022-07-05T13:30:40;1.95;;;1.00;;
15458;SDS011;59054;48.692;9.136;2022-07-05T13:33:07;2.17;;;1.08;;
15458;SDS011;59054;48.692;9.136;2022-07-05T13:35:34;4.15;;;1.17;;
15458;SDS011;59054;48.692;9.136;2022-07-05T13:38:01;5.47;;;1.65;;
15458;SDS011;59054;48.692;9.136;2022-07-05T13:40:29;4.75;;;1.30;;
15458;SDS011;59054;48.692;9.136;2022-07-05T13:42:56;3.63;;;1.50;;
15458;SDS011;59054;48.692;9.136;2022-07-05T13:45:23;5.18;;;1.48;;
15458;SDS011;59054;48.692;9.136;2022-07-05T13:47:50;4.25;;;1.10;;
15458;SDS011;59054;48.692;9.136;2022-07-05T13:50:17;4.80;;;1.10;;
15458;SDS011;59054;48.692;9.136;2022-07-05T13:53:01;2.80;;;1.10;;
15458;SDS011;59054;48.692;9.136;2022-07-05T13:55:29;3.40;;;1.20;;
15458;SDS011;59054;48.692;9.136;2022-07-05T13:57:56;1.38;;;0.90;;
15458;SDS011;59054;48.692;9.136;2022-07-05T14:00:24;4.65;;;1.30;;
15458;SDS011;59054;48.692;9.136;2022-07-05T14:02:51;2.00;;;1.05;;
15458;SDS011;59054;48.692;9.136;2022-07-05T14:05:21;2.30;;;1.20;;
15458;SDS011;59054;48.692;9.136;2022-07-05T14:07:48;3.75;;;1.27;;
15458;SDS011;59054;48.692;9.136;2022-07-05T14:10:15;2.47;;;1.02;;
15458;SDS011;59054;48.692;9.136;2022-07-05T14:12:43;2.97;;;1.38;;
15458;SDS011;59054;48.692;9.136;2022-07-05T14:15:10;4.43;;;1.58;;
15458;SDS011;59054;48.692;9.136;2022-07-05T14:17:37;2.65;;;1.10;;
15458;SDS011;59054;48.692;9.136;2022-07-05T14:20:05;3.80;;;1.10;;
15458;SDS011;59054;48.692;9.136;2022-07-05T14:22:32;2.60;;;1.13;;
15458;SDS011;59054;48.692;9.136;2022-07-05T14:24:59;7.03;;;1.35;;
15458;SDS011;59054;48.692;9.136;2022-07-05T14:27:27;6.40;;;1.15;;
15458;SDS011;59054;48.692;9.136;2022-07-05T14:29:55;3.70;;;1.05;;
15458;SDS011;59054;48.692;9.136;2022-07-05T14:32:22;4.05;;;1.17;;
15458;SDS011;59054;48.692;9.136;2022-07-05T14:34:49;8.40;;;2.00;;
15458;SDS011;59054;48.692;9.136;2022-07-05T14:37:16;2.65;;;2.03;;
15458;SDS011;59054;48.692;9.136;2022-07-05T14:39:45;4.38;;;1.55;;
15458;SDS011;59054;48.692;9.136;2022-07-05T14:42:12;4.25;;;1.20;;
15458;SDS011;59054;48.692;9.136;2022-07-05T14:44:39;3.13;;;1.30;;
15458;SDS011;59054;48.692;9.136;2022-07-05T14:47:07;4.40;;;1.33;;
15458;SDS011;59054;48.692;9.136;2022-07-05T14:49:35;4.82;;;1.25;;
15458;SDS011;59054;48.692;9.136;2022-07-05T14:52:02;5.70;;;1.10;;
15458;SDS011;59054;48.692;9.136;2022-07-05T14:54:30;3.28;;;1.30;;
15458;SDS011;59054;48.692;9.136;2022-07-05T14:56:56;5.18;;;1.10;;
15458;SDS011;59054;48.692;9.136;2022-07-05T14:59:23;5.82;;;1.63;;